MAPA DE AEROPUERTO

INFORMACIÓN METAR y TAF

METAR FOR LEAM
ADDS - METARS form results

(1105 UTC 29 January 2022)
Data provider http://aviationweather.gov/metar/data/
 
METAR text: LEAM 291100Z 06014KT 030V090 CAVOK 19/M11 Q1032
Conditions at: LEAM (ALMERIA AIRPORT , ES) observed 1100 UTC 29 January 2022
Temperature: 19.0°C (66°F)
Dewpoint: -11.0°C (12°F) [RH = 12%]
Pressure (altimeter): 30.47 inches Hg (1032.0 mb)
Winds: from the ENE (60 degrees) at 16 MPH (14 knots; 7.2 m/s)
Visibility: 6 or more miles (10+ km)
Ceiling: ceiling and visibility are OK
Clouds: unknown
Weather: no significant weather observed at this time

METAR text: LEAM 291030Z 06014KT CAVOK 19/M12 Q1032
Conditions at: LEAM (ALMERIA AIRPORT , ES) observed 1030 UTC 29 January 2022
Temperature: 19.0°C (66°F)
Dewpoint: -12.0°C (10°F) [RH = 11%]
Pressure (altimeter): 30.47 inches Hg (1032.0 mb)
Winds: from the ENE (60 degrees) at 16 MPH (14 knots; 7.2 m/s)
Visibility: 6 or more miles (10+ km)
Ceiling: ceiling and visibility are OK
Clouds: unknown
Weather: no significant weather observed at this time

Forecast for: LEAM (ALMERIA AIRPORT , ES)
Text: TAF LEAM 290500Z 2906/3006 34009KT CAVOK TX20/2914Z TN09/2906Z
Forecast period: 0600 to 0900 UTC 29 January 2022
Forecast type: FROM: standard forecast or significant change
Winds: from the NNW (340 degrees) at 10 MPH (9 knots; 4.6 m/s)
Visibility: 6 or more miles (10+ km)
Ceiling: unknown
Clouds: missing
Weather: no significant weather forecast for this period
Text: BECMG 2909/2911 06018KT
Forecast period: 0900 to 1900 UTC 29 January 2022
Forecast type: BECOMING: Conditions expected to become as follows by 1100 UTC 29 January 2022
Winds: from the ENE (60 degrees) at 21 MPH (18 knots; 9.3 m/s)
Visibility: 6 or more miles (10+ km)
Ceiling: unknown
Clouds: missing
Weather: no significant weather forecast for this period
Text: TEMPO 2909/2918 06017G27KT
Forecast period: 0900 to 1800 UTC 29 January 2022
Forecast type: TEMPORARY: The following changes expected for less than half the time period
Winds: from the ENE (60 degrees) at 20 MPH (17 knots; 8.7 m/s)
gusting to 31 MPH (27 knots; 13.9 m/s)
Visibility: missing
Ceiling: unknown
Clouds: missing
Weather: no significant weather forecast for this period
Text: BECMG 2919/2921 34009KT
Forecast period: 1900 UTC 29 January 2022 to 0600 UTC 30 January 2022
Forecast type: BECOMING: Conditions expected to become as follows by 2100 UTC 29 January 2022
Winds: from the NNW (340 degrees) at 10 MPH (9 knots; 4.6 m/s)
Visibility: 6 or more miles (10+ km)
Ceiling: unknown
Clouds: missing
Weather: no significant weather forecast for this period